< < Back
Terminal Aerodrome Forecast


Current Version              Previous Versions:   1  2  3  4  5  6  7  8  9  

Terminal Aerodrome Forecast

172
FTUS42 KGSP 250911 AAA
TAFCLT
TAF AMD
KCLT 250911Z 2509/2606 18003KT P6SM SKC
     FM251700 20007KT P6SM SCT060=

Latest METAR

419
SAUS70 KWBC 251500 RRD
MTRCLT
METAR KCLT 251452Z 20005KT 10SM CLR 31/22 A3007 RMK AO2 SLP172 T03110222
58004


USA.gov is the U.S. government's official web portal to all federal, state and local government web resources and services.